sensor_id;sensor_type;location;lat;lon;timestamp;P1;durP1;ratioP1;P2;durP2;ratioP2
20014;SDS011;61787;42.022;23.078;2024-03-02T00:00:35;27.25;;;18.73;;
20014;SDS011;61787;42.022;23.078;2024-03-02T00:01:36;29.33;;;19.20;;
20014;SDS011;61787;42.022;23.078;2024-03-02T00:02:42;27.58;;;19.00;;
20014;SDS011;61787;42.022;23.078;2024-03-02T00:03:47;30.27;;;20.30;;
20014;SDS011;61787;42.022;23.078;2024-03-02T00:04:48;25.85;;;18.50;;
20014;SDS011;61787;42.022;23.078;2024-03-02T00:05:50;26.80;;;18.35;;
20014;SDS011;61787;42.022;23.078;2024-03-02T00:06:55;29.02;;;18.60;;
20014;SDS011;61787;42.022;23.078;2024-03-02T00:07:57;26.40;;;17.77;;
20014;SDS011;61787;42.022;23.078;2024-03-02T00:08:59;29.00;;;18.45;;
20014;SDS011;61787;42.022;23.078;2024-03-02T00:10:07;33.65;;;19.42;;
20014;SDS011;61787;42.022;23.078;2024-03-02T00:11:13;29.80;;;19.85;;
20014;SDS011;61787;42.022;23.078;2024-03-02T00:12:16;26.25;;;19.27;;
20014;SDS011;61787;42.022;23.078;2024-03-02T00:13:20;30.92;;;19.30;;
20014;SDS011;61787;42.022;23.078;2024-03-02T00:14:25;28.55;;;17.75;;
20014;SDS011;61787;42.022;23.078;2024-03-02T00:16:45;28.38;;;18.42;;
20014;SDS011;61787;42.022;23.078;2024-03-02T00:17:46;27.05;;;18.48;;
20014;SDS011;61787;42.022;23.078;2024-03-02T00:18:54;32.22;;;18.23;;
20014;SDS011;61787;42.022;23.078;2024-03-02T00:19:55;27.40;;;17.50;;
20014;SDS011;61787;42.022;23.078;2024-03-02T00:20:57;29.17;;;18.38;;
20014;SDS011;61787;42.022;23.078;2024-03-02T00:22:00;31.00;;;19.50;;
20014;SDS011;61787;42.022;23.078;2024-03-02T00:23:03;29.17;;;18.45;;
20014;SDS011;61787;42.022;23.078;2024-03-02T00:24:31;27.85;;;18.35;;
20014;SDS011;61787;42.022;23.078;2024-03-02T00:25:39;29.95;;;18.48;;
20014;SDS011;61787;42.022;23.078;2024-03-02T00:26:44;26.92;;;17.58;;
20014;SDS011;61787;42.022;23.078;2024-03-02T00:27:47;25.85;;;17.20;;
20014;SDS011;61787;42.022;23.078;2024-03-02T00:28:50;27.50;;;18.38;;
20014;SDS011;61787;42.022;23.078;2024-03-02T00:29:56;27.73;;;18.17;;
20014;SDS011;61787;42.022;23.078;2024-03-02T00:30:59;27.08;;;18.25;;
20014;SDS011;61787;42.022;23.078;2024-03-02T00:32:13;30.90;;;17.17;;
20014;SDS011;61787;42.022;23.078;2024-03-02T00:33:17;25.58;;;17.55;;
20014;SDS011;61787;42.022;23.078;2024-03-02T00:34:21;26.85;;;17.80;;
20014;SDS011;61787;42.022;23.078;2024-03-02T00:35:23;28.08;;;19.10;;
20014;SDS011;61787;42.022;23.078;2024-03-02T00:36:26;29.02;;;18.42;;
20014;SDS011;61787;42.022;23.078;2024-03-02T00:37:28;27.08;;;18.02;;
20014;SDS011;61787;42.022;23.078;2024-03-02T00:38:31;26.98;;;19.35;;
20014;SDS011;61787;42.022;23.078;2024-03-02T00:39:33;25.52;;;17.58;;
20014;SDS011;61787;42.022;23.078;2024-03-02T00:40:34;28.38;;;18.75;;
20014;SDS011;61787;42.022;23.078;2024-03-02T00:41:36;27.13;;;18.20;;
20014;SDS011;61787;42.022;23.078;2024-03-02T00:42:38;27.40;;;17.83;;
20014;SDS011;61787;42.022;23.078;2024-03-02T00:45:07;26.23;;;17.10;;
20014;SDS011;61787;42.022;23.078;2024-03-02T00:46:12;24.95;;;17.90;;
20014;SDS011;61787;42.022;23.078;2024-03-02T00:47:23;24.15;;;17.42;;
20014;SDS011;61787;42.022;23.078;2024-03-02T00:48:24;25.63;;;17.20;;
20014;SDS011;61787;42.022;23.078;2024-03-02T00:49:26;28.63;;;18.50;;
20014;SDS011;61787;42.022;23.078;2024-03-02T00:50:29;27.52;;;17.83;;
20014;SDS011;61787;42.022;23.078;2024-03-02T00:51:32;26.63;;;18.23;;
20014;SDS011;61787;42.022;23.078;2024-03-02T00:52:36;25.67;;;17.63;;
20014;SDS011;61787;42.022;23.078;2024-03-02T00:53:37;25.00;;;17.42;;
20014;SDS011;61787;42.022;23.078;2024-03-02T00:54:39;28.83;;;17.65;;
20014;SDS011;61787;42.022;23.078;2024-03-02T00:55:41;26.60;;;18.63;;
20014;SDS011;61787;42.022;23.078;2024-03-02T00:56:45;24.70;;;17.05;;
20014;SDS011;61787;42.022;23.078;2024-03-02T00:57:48;27.20;;;17.55;;
20014;SDS011;61787;42.022;23.078;2024-03-02T00:58:50;27.23;;;17.00;;
20014;SDS011;61787;42.022;23.078;2024-03-02T00:59:53;26.80;;;17.55;;
20014;SDS011;61787;42.022;23.078;2024-03-02T01:00:55;26.33;;;16.98;;
20014;SDS011;61787;42.022;23.078;2024-03-02T01:01:57;25.65;;;16.45;;
20014;SDS011;61787;42.022;23.078;2024-03-02T01:02:58;23.67;;;17.17;;
20014;SDS011;61787;42.022;23.078;2024-03-02T01:04:01;27.83;;;18.55;;
20014;SDS011;61787;42.022;23.078;2024-03-02T01:05:02;26.50;;;18.42;;
20014;SDS011;61787;42.022;23.078;2024-03-02T01:06:06;26.70;;;17.33;;
20014;SDS011;61787;42.022;23.078;2024-03-02T01:07:08;25.95;;;18.55;;
20014;SDS011;61787;42.022;23.078;2024-03-02T01:08:10;31.52;;;19.13;;
20014;SDS011;61787;42.022;23.078;2024-03-02T01:09:12;41.55;;;22.70;;
20014;SDS011;61787;42.022;23.078;2024-03-02T01:10:14;34.60;;;21.00;;
20014;SDS011;61787;42.022;23.078;2024-03-02T01:11:15;32.45;;;19.48;;
20014;SDS011;61787;42.022;23.078;2024-03-02T01:12:17;24.25;;;16.42;;
20014;SDS011;61787;42.022;23.078;2024-03-02T01:13:19;26.02;;;17.17;;
20014;SDS011;61787;42.022;23.078;2024-03-02T01:14:21;23.98;;;16.45;;
20014;SDS011;61787;42.022;23.078;2024-03-02T01:15:22;24.60;;;16.70;;
20014;SDS011;61787;42.022;23.078;2024-03-02T01:16:24;25.67;;;16.92;;
20014;SDS011;61787;42.022;23.078;2024-03-02T01:17:26;25.83;;;16.70;;
20014;SDS011;61787;42.022;23.078;2024-03-02T01:18:27;24.02;;;15.35;;
20014;SDS011;61787;42.022;23.078;2024-03-02T01:19:29;24.73;;;16.95;;
20014;SDS011;61787;42.022;23.078;2024-03-02T01:20:31;23.95;;;15.82;;
20014;SDS011;61787;42.022;23.078;2024-03-02T01:21:33;25.30;;;16.40;;
20014;SDS011;61787;42.022;23.078;2024-03-02T01:22:35;28.20;;;17.83;;
20014;SDS011;61787;42.022;23.078;2024-03-02T01:23:37;31.15;;;18.48;;
20014;SDS011;61787;42.022;23.078;2024-03-02T01:24:39;29.15;;;18.95;;
20014;SDS011;61787;42.022;23.078;2024-03-02T01:25:40;32.28;;;21.25;;
20014;SDS011;61787;42.022;23.078;2024-03-02T01:26:42;29.85;;;18.63;;
20014;SDS011;61787;42.022;23.078;2024-03-02T01:27:44;29.02;;;17.60;;
20014;SDS011;61787;42.022;23.078;2024-03-02T01:28:49;28.33;;;18.08;;
20014;SDS011;61787;42.022;23.078;2024-03-02T01:29:51;26.80;;;17.80;;
20014;SDS011;61787;42.022;23.078;2024-03-02T01:30:52;27.92;;;19.35;;
20014;SDS011;61787;42.022;23.078;2024-03-02T01:31:54;25.13;;;17.73;;
20014;SDS011;61787;42.022;23.078;2024-03-02T01:32:55;27.77;;;17.45;;
20014;SDS011;61787;42.022;23.078;2024-03-02T01:33:57;25.58;;;17.65;;
20014;SDS011;61787;42.022;23.078;2024-03-02T01:34:59;28.60;;;17.58;;
20014;SDS011;61787;42.022;23.078;2024-03-02T01:36:00;29.08;;;17.70;;
20014;SDS011;61787;42.022;23.078;2024-03-02T01:37:02;27.23;;;17.52;;
20014;SDS011;61787;42.022;23.078;2024-03-02T01:38:04;28.02;;;18.73;;
20014;SDS011;61787;42.022;23.078;2024-03-02T01:39:07;29.23;;;17.63;;
20014;SDS011;61787;42.022;23.078;2024-03-02T01:40:10;28.38;;;17.90;;
20014;SDS011;61787;42.022;23.078;2024-03-02T01:41:12;27.25;;;18.50;;
20014;SDS011;61787;42.022;23.078;2024-03-02T01:42:14;27.90;;;18.08;;
20014;SDS011;61787;42.022;23.078;2024-03-02T01:43:16;28.35;;;18.40;;
20014;SDS011;61787;42.022;23.078;2024-03-02T01:44:18;26.25;;;18.83;;
20014;SDS011;61787;42.022;23.078;2024-03-02T01:45:20;26.92;;;18.73;;
20014;SDS011;61787;42.022;23.078;2024-03-02T01:46:22;29.08;;;18.33;;
20014;SDS011;61787;42.022;23.078;2024-03-02T01:47:24;28.88;;;18.25;;
20014;SDS011;61787;42.022;23.078;2024-03-02T01:48:25;29.17;;;18.88;;
20014;SDS011;61787;42.022;23.078;2024-03-02T01:49:27;26.63;;;18.30;;
20014;SDS011;61787;42.022;23.078;2024-03-02T01:50:29;25.70;;;18.50;;
20014;SDS011;61787;42.022;23.078;2024-03-02T01:51:33;27.25;;;18.90;;
20014;SDS011;61787;42.022;23.078;2024-03-02T01:52:35;26.17;;;17.23;;
20014;SDS011;61787;42.022;23.078;2024-03-02T01:53:36;27.95;;;18.95;;
20014;SDS011;61787;42.022;23.078;2024-03-02T01:54:38;26.90;;;17.73;;
20014;SDS011;61787;42.022;23.078;2024-03-02T01:55:40;27.75;;;18.08;;
20014;SDS011;61787;42.022;23.078;2024-03-02T01:56:42;23.73;;;17.05;;
20014;SDS011;61787;42.022;23.078;2024-03-02T01:57:43;26.63;;;17.20;;
20014;SDS011;61787;42.022;23.078;2024-03-02T01:58:46;25.25;;;17.55;;
20014;SDS011;61787;42.022;23.078;2024-03-02T01:59:48;24.80;;;17.20;;
20014;SDS011;61787;42.022;23.078;2024-03-02T02:00:49;29.48;;;19.15;;
20014;SDS011;61787;42.022;23.078;2024-03-02T02:01:51;28.55;;;19.30;;
20014;SDS011;61787;42.022;23.078;2024-03-02T02:02:53;26.80;;;18.15;;
20014;SDS011;61787;42.022;23.078;2024-03-02T02:03:55;28.60;;;18.58;;
20014;SDS011;61787;42.022;23.078;2024-03-02T02:04:57;27.33;;;19.08;;
20014;SDS011;61787;42.022;23.078;2024-03-02T02:05:59;29.65;;;19.00;;
20014;SDS011;61787;42.022;23.078;2024-03-02T02:07:00;26.58;;;18.73;;
20014;SDS011;61787;42.022;23.078;2024-03-02T02:08:02;26.05;;;18.42;;
20014;SDS011;61787;42.022;23.078;2024-03-02T02:09:04;29.50;;;19.20;;
20014;SDS011;61787;42.022;23.078;2024-03-02T02:10:06;25.15;;;16.98;;
20014;SDS011;61787;42.022;23.078;2024-03-02T02:11:07;29.13;;;20.05;;
20014;SDS011;61787;42.022;23.078;2024-03-02T02:12:09;30.17;;;19.30;;
20014;SDS011;61787;42.022;23.078;2024-03-02T02:13:11;28.67;;;19.20;;
20014;SDS011;61787;42.022;23.078;2024-03-02T02:14:13;30.20;;;18.90;;
20014;SDS011;61787;42.022;23.078;2024-03-02T02:15:28;29.05;;;18.80;;
20014;SDS011;61787;42.022;23.078;2024-03-02T02:16:31;27.10;;;18.35;;
20014;SDS011;61787;42.022;23.078;2024-03-02T02:17:32;30.13;;;19.27;;
20014;SDS011;61787;42.022;23.078;2024-03-02T02:18:34;29.55;;;19.83;;
20014;SDS011;61787;42.022;23.078;2024-03-02T02:19:37;29.73;;;18.85;;
20014;SDS011;61787;42.022;23.078;2024-03-02T02:20:39;31.45;;;19.42;;
20014;SDS011;61787;42.022;23.078;2024-03-02T02:21:43;26.55;;;18.00;;
20014;SDS011;61787;42.022;23.078;2024-03-02T02:23:03;31.38;;;20.38;;
20014;SDS011;61787;42.022;23.078;2024-03-02T02:24:07;26.48;;;18.67;;
20014;SDS011;61787;42.022;23.078;2024-03-02T02:25:08;28.48;;;18.23;;
20014;SDS011;61787;42.022;23.078;2024-03-02T02:26:10;27.27;;;18.23;;
20014;SDS011;61787;42.022;23.078;2024-03-02T02:27:12;26.58;;;17.80;;
20014;SDS011;61787;42.022;23.078;2024-03-02T02:28:16;27.65;;;18.73;;
20014;SDS011;61787;42.022;23.078;2024-03-02T02:29:18;27.98;;;18.52;;
20014;SDS011;61787;42.022;23.078;2024-03-02T02:30:20;29.38;;;19.17;;
20014;SDS011;61787;42.022;23.078;2024-03-02T02:31:23;24.17;;;17.45;;
20014;SDS011;61787;42.022;23.078;2024-03-02T02:32:25;28.27;;;18.58;;
20014;SDS011;61787;42.022;23.078;2024-03-02T02:33:26;27.17;;;18.20;;
20014;SDS011;61787;42.022;23.078;2024-03-02T02:34:28;26.85;;;18.27;;
20014;SDS011;61787;42.022;23.078;2024-03-02T02:35:30;28.98;;;18.30;;
20014;SDS011;61787;42.022;23.078;2024-03-02T02:36:32;24.55;;;17.30;;
20014;SDS011;61787;42.022;23.078;2024-03-02T02:37:35;26.38;;;17.92;;
20014;SDS011;61787;42.022;23.078;2024-03-02T02:38:38;29.17;;;18.38;;
20014;SDS011;61787;42.022;23.078;2024-03-02T02:39:42;23.92;;;17.38;;
20014;SDS011;61787;42.022;23.078;2024-03-02T02:40:45;25.77;;;17.10;;
20014;SDS011;61787;42.022;23.078;2024-03-02T02:41:46;28.38;;;17.58;;
20014;SDS011;61787;42.022;23.078;2024-03-02T02:42:48;25.52;;;17.27;;
20014;SDS011;61787;42.022;23.078;2024-03-02T02:43:50;27.42;;;17.33;;
20014;SDS011;61787;42.022;23.078;2024-03-02T02:44:52;25.73;;;17.23;;
20014;SDS011;61787;42.022;23.078;2024-03-02T02:45:54;26.23;;;17.80;;
20014;SDS011;61787;42.022;23.078;2024-03-02T02:46:56;27.05;;;18.25;;
20014;SDS011;61787;42.022;23.078;2024-03-02T02:47:57;31.10;;;18.92;;
20014;SDS011;61787;42.022;23.078;2024-03-02T02:48:59;29.05;;;18.73;;
20014;SDS011;61787;42.022;23.078;2024-03-02T02:50:02;27.70;;;18.95;;
20014;SDS011;61787;42.022;23.078;2024-03-02T02:51:04;30.30;;;18.83;;
20014;SDS011;61787;42.022;23.078;2024-03-02T02:52:06;32.53;;;20.27;;
20014;SDS011;61787;42.022;23.078;2024-03-02T02:53:07;28.17;;;19.20;;
20014;SDS011;61787;42.022;23.078;2024-03-02T02:54:11;28.90;;;18.27;;
20014;SDS011;61787;42.022;23.078;2024-03-02T02:55:12;28.38;;;18.00;;
20014;SDS011;61787;42.022;23.078;2024-03-02T02:56:17;28.77;;;17.90;;
20014;SDS011;61787;42.022;23.078;2024-03-02T02:57:18;25.63;;;17.58;;
20014;SDS011;61787;42.022;23.078;2024-03-02T02:58:20;26.35;;;18.08;;
20014;SDS011;61787;42.022;23.078;2024-03-02T02:59:21;28.00;;;18.48;;
20014;SDS011;61787;42.022;23.078;2024-03-02T03:00:23;27.20;;;17.25;;
20014;SDS011;61787;42.022;23.078;2024-03-02T03:01:25;26.15;;;17.35;;
20014;SDS011;61787;42.022;23.078;2024-03-02T03:02:27;28.30;;;18.55;;
20014;SDS011;61787;42.022;23.078;2024-03-02T03:03:29;27.52;;;17.70;;
20014;SDS011;61787;42.022;23.078;2024-03-02T03:04:31;24.63;;;16.23;;
20014;SDS011;61787;42.022;23.078;2024-03-02T03:05:33;29.75;;;18.35;;
20014;SDS011;61787;42.022;23.078;2024-03-02T03:06:34;25.83;;;17.70;;
20014;SDS011;61787;42.022;23.078;2024-03-02T03:07:36;25.83;;;17.08;;
20014;SDS011;61787;42.022;23.078;2024-03-02T03:08:39;31.58;;;19.83;;
20014;SDS011;61787;42.022;23.078;2024-03-02T03:09:40;30.80;;;18.58;;
20014;SDS011;61787;42.022;23.078;2024-03-02T03:10:42;38.00;;;22.13;;
20014;SDS011;61787;42.022;23.078;2024-03-02T03:11:43;34.67;;;21.50;;
20014;SDS011;61787;42.022;23.078;2024-03-02T03:12:45;34.88;;;21.27;;
20014;SDS011;61787;42.022;23.078;2024-03-02T03:13:48;28.50;;;20.08;;
20014;SDS011;61787;42.022;23.078;2024-03-02T03:14:49;31.13;;;19.70;;
20014;SDS011;61787;42.022;23.078;2024-03-02T03:15:51;30.15;;;19.77;;
20014;SDS011;61787;42.022;23.078;2024-03-02T03:16:53;30.75;;;19.55;;
20014;SDS011;61787;42.022;23.078;2024-03-02T03:17:54;30.40;;;19.55;;
20014;SDS011;61787;42.022;23.078;2024-03-02T03:18:56;30.20;;;20.15;;
20014;SDS011;61787;42.022;23.078;2024-03-02T03:19:58;29.13;;;19.92;;
20014;SDS011;61787;42.022;23.078;2024-03-02T03:21:00;33.00;;;20.52;;
20014;SDS011;61787;42.022;23.078;2024-03-02T03:22:02;30.85;;;19.52;;
20014;SDS011;61787;42.022;23.078;2024-03-02T03:23:04;28.33;;;18.95;;
20014;SDS011;61787;42.022;23.078;2024-03-02T03:24:06;31.45;;;20.25;;
20014;SDS011;61787;42.022;23.078;2024-03-02T03:25:08;27.60;;;18.73;;
20014;SDS011;61787;42.022;23.078;2024-03-02T03:26:10;29.98;;;19.50;;
20014;SDS011;61787;42.022;23.078;2024-03-02T03:27:12;29.52;;;19.13;;
20014;SDS011;61787;42.022;23.078;2024-03-02T03:28:13;28.70;;;18.15;;
20014;SDS011;61787;42.022;23.078;2024-03-02T03:29:15;28.55;;;18.27;;
20014;SDS011;61787;42.022;23.078;2024-03-02T03:30:17;32.22;;;19.77;;
20014;SDS011;61787;42.022;23.078;2024-03-02T03:31:18;34.95;;;20.80;;
20014;SDS011;61787;42.022;23.078;2024-03-02T03:32:20;28.63;;;19.08;;
20014;SDS011;61787;42.022;23.078;2024-03-02T03:33:22;30.80;;;19.83;;
20014;SDS011;61787;42.022;23.078;2024-03-02T03:34:23;29.05;;;19.23;;
20014;SDS011;61787;42.022;23.078;2024-03-02T03:35:25;30.45;;;20.42;;
20014;SDS011;61787;42.022;23.078;2024-03-02T03:36:27;30.55;;;19.60;;
20014;SDS011;61787;42.022;23.078;2024-03-02T03:37:29;33.95;;;20.17;;
20014;SDS011;61787;42.022;23.078;2024-03-02T03:38:35;30.80;;;19.55;;
20014;SDS011;61787;42.022;23.078;2024-03-02T03:39:37;31.05;;;19.08;;
20014;SDS011;61787;42.022;23.078;2024-03-02T03:40:39;30.83;;;20.02;;
20014;SDS011;61787;42.022;23.078;2024-03-02T03:41:40;28.90;;;19.42;;
20014;SDS011;61787;42.022;23.078;2024-03-02T03:42:42;29.15;;;19.75;;
20014;SDS011;61787;42.022;23.078;2024-03-02T03:43:44;31.30;;;19.48;;
20014;SDS011;61787;42.022;23.078;2024-03-02T03:44:45;29.52;;;19.02;;
20014;SDS011;61787;42.022;23.078;2024-03-02T03:45:47;27.05;;;18.63;;
20014;SDS011;61787;42.022;23.078;2024-03-02T03:46:48;28.38;;;17.92;;
20014;SDS011;61787;42.022;23.078;2024-03-02T03:47:50;31.98;;;19.73;;
20014;SDS011;61787;42.022;23.078;2024-03-02T03:48:52;28.38;;;18.02;;
20014;SDS011;61787;42.022;23.078;2024-03-02T03:49:53;28.50;;;17.88;;
20014;SDS011;61787;42.022;23.078;2024-03-02T03:50:55;27.92;;;17.75;;
20014;SDS011;61787;42.022;23.078;2024-03-02T03:51:57;30.88;;;18.77;;
20014;SDS011;61787;42.022;23.078;2024-03-02T03:52:58;29.98;;;19.20;;
20014;SDS011;61787;42.022;23.078;2024-03-02T03:54:00;29.08;;;19.08;;
20014;SDS011;61787;42.022;23.078;2024-03-02T03:55:02;25.85;;;18.50;;
20014;SDS011;61787;42.022;23.078;2024-03-02T03:56:04;28.38;;;18.17;;
20014;SDS011;61787;42.022;23.078;2024-03-02T03:57:06;29.67;;;19.45;;
20014;SDS011;61787;42.022;23.078;2024-03-02T03:58:08;30.17;;;19.20;;
20014;SDS011;61787;42.022;23.078;2024-03-02T03:59:09;30.02;;;18.52;;
20014;SDS011;61787;42.022;23.078;2024-03-02T04:00:11;29.63;;;19.20;;
20014;SDS011;61787;42.022;23.078;2024-03-02T04:01:13;31.05;;;18.80;;
20014;SDS011;61787;42.022;23.078;2024-03-02T04:02:15;27.85;;;18.58;;
20014;SDS011;61787;42.022;23.078;2024-03-02T04:03:16;28.63;;;18.83;;
20014;SDS011;61787;42.022;23.078;2024-03-02T04:04:18;27.70;;;17.88;;
20014;SDS011;61787;42.022;23.078;2024-03-02T04:05:19;29.10;;;19.05;;
20014;SDS011;61787;42.022;23.078;2024-03-02T04:06:21;28.30;;;18.90;;
20014;SDS011;61787;42.022;23.078;2024-03-02T04:07:23;29.17;;;18.95;;
20014;SDS011;61787;42.022;23.078;2024-03-02T04:08:24;27.38;;;18.27;;
20014;SDS011;61787;42.022;23.078;2024-03-02T04:09:26;29.02;;;19.05;;
20014;SDS011;61787;42.022;23.078;2024-03-02T04:10:28;27.42;;;18.30;;
20014;SDS011;61787;42.022;23.078;2024-03-02T04:11:31;28.48;;;19.02;;
20014;SDS011;61787;42.022;23.078;2024-03-02T04:12:33;28.88;;;18.55;;
20014;SDS011;61787;42.022;23.078;2024-03-02T04:13:35;27.10;;;18.55;;
20014;SDS011;61787;42.022;23.078;2024-03-02T04:14:37;26.10;;;17.42;;
20014;SDS011;61787;42.022;23.078;2024-03-02T04:15:39;27.73;;;17.90;;
20014;SDS011;61787;42.022;23.078;2024-03-02T04:16:41;24.58;;;17.38;;
20014;SDS011;61787;42.022;23.078;2024-03-02T04:17:43;28.60;;;16.77;;
20014;SDS011;61787;42.022;23.078;2024-03-02T04:18:45;24.67;;;16.65;;
20014;SDS011;61787;42.022;23.078;2024-03-02T04:19:47;25.05;;;15.50;;
20014;SDS011;61787;42.022;23.078;2024-03-02T04:20:48;24.25;;;16.13;;
20014;SDS011;61787;42.022;23.078;2024-03-02T04:21:54;24.90;;;17.52;;
20014;SDS011;61787;42.022;23.078;2024-03-02T04:22:56;26.05;;;16.80;;
20014;SDS011;61787;42.022;23.078;2024-03-02T04:23:57;25.08;;;16.48;;
20014;SDS011;61787;42.022;23.078;2024-03-02T04:25:00;27.23;;;18.83;;
20014;SDS011;61787;42.022;23.078;2024-03-02T04:26:03;28.52;;;19.05;;
20014;SDS011;61787;42.022;23.078;2024-03-02T04:27:05;29.20;;;20.00;;
20014;SDS011;61787;42.022;23.078;2024-03-02T04:28:07;28.85;;;18.63;;
20014;SDS011;61787;42.022;23.078;2024-03-02T04:29:08;29.33;;;19.40;;
20014;SDS011;61787;42.022;23.078;2024-03-02T04:30:10;27.80;;;18.77;;
20014;SDS011;61787;42.022;23.078;2024-03-02T04:31:12;26.98;;;18.63;;
20014;SDS011;61787;42.022;23.078;2024-03-02T04:32:13;32.42;;;20.58;;
20014;SDS011;61787;42.022;23.078;2024-03-02T04:33:15;28.65;;;18.77;;
20014;SDS011;61787;42.022;23.078;2024-03-02T04:34:17;29.35;;;19.75;;
20014;SDS011;61787;42.022;23.078;2024-03-02T04:35:18;27.63;;;19.83;;
20014;SDS011;61787;42.022;23.078;2024-03-02T04:36:20;32.45;;;19.20;;
20014;SDS011;61787;42.022;23.078;2024-03-02T04:37:22;27.27;;;17.83;;
20014;SDS011;61787;42.022;23.078;2024-03-02T04:38:24;27.30;;;19.45;;
20014;SDS011;61787;42.022;23.078;2024-03-02T04:39:25;25.40;;;16.73;;
20014;SDS011;61787;42.022;23.078;2024-03-02T04:40:27;23.98;;;16.73;;
20014;SDS011;61787;42.022;23.078;2024-03-02T04:41:29;28.10;;;18.35;;
20014;SDS011;61787;42.022;23.078;2024-03-02T04:42:31;25.58;;;17.60;;
20014;SDS011;61787;42.022;23.078;2024-03-02T04:43:32;27.92;;;17.98;;
20014;SDS011;61787;42.022;23.078;2024-03-02T04:44:34;25.88;;;17.90;;
20014;SDS011;61787;42.022;23.078;2024-03-02T04:45:37;26.65;;;17.75;;
20014;SDS011;61787;42.022;23.078;2024-03-02T04:46:40;26.58;;;18.60;;
20014;SDS011;61787;42.022;23.078;2024-03-02T04:47:41;28.08;;;18.80;;
20014;SDS011;61787;42.022;23.078;2024-03-02T04:48:43;30.20;;;19.00;;
20014;SDS011;61787;42.022;23.078;2024-03-02T04:49:45;28.55;;;17.92;;
20014;SDS011;61787;42.022;23.078;2024-03-02T04:50:47;27.20;;;18.20;;
20014;SDS011;61787;42.022;23.078;2024-03-02T04:51:49;29.33;;;19.20;;
20014;SDS011;61787;42.022;23.078;2024-03-02T04:52:50;26.30;;;17.58;;
20014;SDS011;61787;42.022;23.078;2024-03-02T04:53:52;29.25;;;18.30;;
20014;SDS011;61787;42.022;23.078;2024-03-02T04:54:53;26.65;;;18.55;;
20014;SDS011;61787;42.022;23.078;2024-03-02T04:56:13;25.58;;;17.60;;
20014;SDS011;61787;42.022;23.078;2024-03-02T04:57:40;28.40;;;17.70;;
20014;SDS011;61787;42.022;23.078;2024-03-02T04:58:41;29.30;;;18.73;;
20014;SDS011;61787;42.022;23.078;2024-03-02T04:59:43;27.45;;;18.17;;
20014;SDS011;61787;42.022;23.078;2024-03-02T05:00:45;29.50;;;19.10;;
20014;SDS011;61787;42.022;23.078;2024-03-02T05:01:48;31.38;;;19.23;;
20014;SDS011;61787;42.022;23.078;2024-03-02T05:02:49;26.50;;;18.50;;
20014;SDS011;61787;42.022;23.078;2024-03-02T05:03:52;29.08;;;19.08;;
20014;SDS011;61787;42.022;23.078;2024-03-02T05:04:54;29.35;;;20.10;;
20014;SDS011;61787;42.022;23.078;2024-03-02T05:05:55;28.17;;;19.52;;
20014;SDS011;61787;42.022;23.078;2024-03-02T05:06:57;30.00;;;19.75;;
20014;SDS011;61787;42.022;23.078;2024-03-02T05:07:59;26.33;;;18.30;;
20014;SDS011;61787;42.022;23.078;2024-03-02T05:09:01;27.50;;;18.65;;
20014;SDS011;61787;42.022;23.078;2024-03-02T05:10:02;30.17;;;20.20;;
20014;SDS011;61787;42.022;23.078;2024-03-02T05:11:04;29.60;;;19.05;;
20014;SDS011;61787;42.022;23.078;2024-03-02T05:12:24;32.00;;;19.23;;
20014;SDS011;61787;42.022;23.078;2024-03-02T05:13:44;30.23;;;19.58;;
20014;SDS011;61787;42.022;23.078;2024-03-02T05:14:46;28.77;;;17.73;;
20014;SDS011;61787;42.022;23.078;2024-03-02T05:15:48;34.25;;;21.15;;
20014;SDS011;61787;42.022;23.078;2024-03-02T05:16:49;33.80;;;20.63;;
20014;SDS011;61787;42.022;23.078;2024-03-02T05:17:51;29.48;;;19.38;;
20014;SDS011;61787;42.022;23.078;2024-03-02T05:18:53;27.10;;;18.27;;
20014;SDS011;61787;42.022;23.078;2024-03-02T05:19:54;28.92;;;19.08;;
20014;SDS011;61787;42.022;23.078;2024-03-02T05:20:56;30.98;;;20.65;;
20014;SDS011;61787;42.022;23.078;2024-03-02T05:21:58;30.83;;;20.40;;
20014;SDS011;61787;42.022;23.078;2024-03-02T05:22:59;28.92;;;20.75;;
20014;SDS011;61787;42.022;23.078;2024-03-02T05:24:01;33.78;;;21.95;;
20014;SDS011;61787;42.022;23.078;2024-03-02T05:25:04;38.25;;;23.70;;
20014;SDS011;61787;42.022;23.078;2024-03-02T05:26:06;33.25;;;21.30;;
20014;SDS011;61787;42.022;23.078;2024-03-02T05:27:08;33.40;;;21.67;;
20014;SDS011;61787;42.022;23.078;2024-03-02T05:28:09;31.75;;;20.75;;
20014;SDS011;61787;42.022;23.078;2024-03-02T05:29:11;36.40;;;22.45;;
20014;SDS011;61787;42.022;23.078;2024-03-02T05:30:13;43.28;;;24.65;;
20014;SDS011;61787;42.022;23.078;2024-03-02T05:31:15;38.50;;;23.70;;
20014;SDS011;61787;42.022;23.078;2024-03-02T05:32:17;41.58;;;26.05;;
20014;SDS011;61787;42.022;23.078;2024-03-02T05:33:19;46.45;;;25.92;;
20014;SDS011;61787;42.022;23.078;2024-03-02T05:34:23;38.95;;;24.55;;
20014;SDS011;61787;42.022;23.078;2024-03-02T05:35:25;38.60;;;24.02;;
20014;SDS011;61787;42.022;23.078;2024-03-02T05:36:27;38.22;;;24.17;;
20014;SDS011;61787;42.022;23.078;2024-03-02T05:37:28;37.95;;;23.60;;
20014;SDS011;61787;42.022;23.078;2024-03-02T05:38:30;39.65;;;24.25;;
20014;SDS011;61787;42.022;23.078;2024-03-02T05:39:32;36.00;;;23.55;;
20014;SDS011;61787;42.022;23.078;2024-03-02T05:40:34;34.42;;;23.02;;
20014;SDS011;61787;42.022;23.078;2024-03-02T05:41:35;34.67;;;22.40;;
20014;SDS011;61787;42.022;23.078;2024-03-02T05:42:37;38.80;;;24.10;;
20014;SDS011;61787;42.022;23.078;2024-03-02T05:43:39;36.40;;;21.88;;
20014;SDS011;61787;42.022;23.078;2024-03-02T05:44:41;30.98;;;21.30;;
20014;SDS011;61787;42.022;23.078;2024-03-02T05:45:42;31.23;;;20.58;;
20014;SDS011;61787;42.022;23.078;2024-03-02T05:46:44;31.75;;;21.50;;
20014;SDS011;61787;42.022;23.078;2024-03-02T05:47:46;31.15;;;21.80;;
20014;SDS011;61787;42.022;23.078;2024-03-02T05:48:48;32.08;;;21.42;;
20014;SDS011;61787;42.022;23.078;2024-03-02T05:49:50;28.83;;;20.30;;
20014;SDS011;61787;42.022;23.078;2024-03-02T05:50:51;30.42;;;20.85;;
20014;SDS011;61787;42.022;23.078;2024-03-02T05:51:53;31.63;;;20.88;;
20014;SDS011;61787;42.022;23.078;2024-03-02T05:52:54;29.50;;;20.00;;
20014;SDS011;61787;42.022;23.078;2024-03-02T05:53:57;31.35;;;20.08;;
20014;SDS011;61787;42.022;23.078;2024-03-02T05:54:59;29.38;;;19.83;;
20014;SDS011;61787;42.022;23.078;2024-03-02T05:56:01;30.15;;;20.67;;
20014;SDS011;61787;42.022;23.078;2024-03-02T05:57:05;31.48;;;20.58;;
20014;SDS011;61787;42.022;23.078;2024-03-02T05:58:35;33.65;;;19.88;;
20014;SDS011;61787;42.022;23.078;2024-03-02T05:59:55;30.15;;;20.25;;
20014;SDS011;61787;42.022;23.078;2024-03-02T06:00:57;29.33;;;19.90;;
20014;SDS011;61787;42.022;23.078;2024-03-02T06:01:59;31.90;;;21.65;;
20014;SDS011;61787;42.022;23.078;2024-03-02T06:03:01;32.92;;;21.27;;
20014;SDS011;61787;42.022;23.078;2024-03-02T06:04:03;28.63;;;19.20;;